createdAt,value
2018-07-28T00:01:45.405Z,18.20
2018-07-28T00:04:13.202Z,18.20
2018-07-28T00:06:55.212Z,18.20
2018-07-28T00:09:22.991Z,18.10
2018-07-28T00:11:50.808Z,18.10
2018-07-28T00:14:18.672Z,18.10
2018-07-28T00:16:46.580Z,18.10
2018-07-28T00:19:14.379Z,18.20
2018-07-28T00:21:57.297Z,18.20
2018-07-28T00:24:25.165Z,18.30
2018-07-28T00:26:52.978Z,18.20
2018-07-28T00:29:21.003Z,18.20
2018-07-28T00:31:49.001Z,18.10
2018-07-28T00:34:16.900Z,18.10
2018-07-28T00:36:44.743Z,18.10
2018-07-28T00:39:19.227Z,18.10
2018-07-28T00:42:08.190Z,18.00
2018-07-28T00:44:36.128Z,17.90
2018-07-28T00:47:04.071Z,17.90
2018-07-28T00:49:32.002Z,17.90
2018-07-28T00:51:59.836Z,17.80
2018-07-28T00:54:27.793Z,17.80
2018-07-28T00:56:56.213Z,17.70
2018-07-28T00:59:24.136Z,17.70
2018-07-28T01:01:51.982Z,17.60
2018-07-28T01:04:19.828Z,17.60
2018-07-28T01:06:47.675Z,17.60
2018-07-28T01:09:15.546Z,17.60
2018-07-28T01:11:43.419Z,17.50
2018-07-28T01:14:11.353Z,17.50
2018-07-28T01:16:39.181Z,17.50
2018-07-28T01:19:07.158Z,17.40
2018-07-28T01:21:56.334Z,17.50
2018-07-28T01:24:24.821Z,17.50
2018-07-28T01:26:52.730Z,17.40
2018-07-28T01:29:27.676Z,17.40
2018-07-28T01:31:56.122Z,17.40
2018-07-28T01:34:24.082Z,17.30
2018-07-28T01:36:52.051Z,17.30
2018-07-28T01:39:19.825Z,17.20
2018-07-28T01:41:47.549Z,17.20
2018-07-28T01:44:15.441Z,17.20
2018-07-28T01:46:43.302Z,17.20
2018-07-28T01:49:11.050Z,17.10
2018-07-28T01:51:38.868Z,17.10
2018-07-28T01:54:20.521Z,17.10
2018-07-28T01:56:48.291Z,17.00
2018-07-28T01:59:16.052Z,16.90
2018-07-28T02:01:43.801Z,16.90
2018-07-28T02:04:11.520Z,17.00
2018-07-28T02:06:39.298Z,16.90
2018-07-28T02:09:08.883Z,16.80
2018-07-28T02:11:36.728Z,16.80
2018-07-28T02:14:04.540Z,16.80
2018-07-28T02:16:32.357Z,16.80
2018-07-28T02:19:00.232Z,16.80
2018-07-28T02:21:28.081Z,16.80
2018-07-28T02:23:56.343Z,16.70
2018-07-28T02:26:24.220Z,16.80
2018-07-28T02:28:52.146Z,16.90
2018-07-28T02:31:19.904Z,16.90
2018-07-28T02:33:47.715Z,16.90
2018-07-28T02:39:11.675Z,16.90
2018-07-28T02:41:40.123Z,16.80
2018-07-28T02:44:08.274Z,16.80
2018-07-28T02:46:36.377Z,16.80
2018-07-28T02:49:04.582Z,16.90
2018-07-28T02:51:32.502Z,16.90
2018-07-28T02:54:00.301Z,16.90
2018-07-28T02:56:28.259Z,16.90
2018-07-28T02:58:56.277Z,16.90
2018-07-28T03:01:24.199Z,16.90
2018-07-28T03:03:51.919Z,16.80
2018-07-28T03:06:19.795Z,16.70
2018-07-28T03:08:47.587Z,16.70
2018-07-28T03:11:15.389Z,16.70
2018-07-28T03:13:43.317Z,16.60
2018-07-28T03:16:13.746Z,16.60
2018-07-28T03:18:41.497Z,16.60
2018-07-28T03:21:09.400Z,16.60
2018-07-28T03:23:37.243Z,16.60
2018-07-28T03:26:05.084Z,16.50
2018-07-28T03:28:33.025Z,16.40
2018-07-28T03:31:00.916Z,16.40
2018-07-28T03:33:29.664Z,16.40
2018-07-28T03:35:57.770Z,16.30
2018-07-28T03:38:25.643Z,16.30
2018-07-28T03:40:53.556Z,16.30
2018-07-28T03:43:21.269Z,16.20
2018-07-28T03:45:48.975Z,16.20
2018-07-28T03:48:16.761Z,16.20
2018-07-28T03:50:44.715Z,16.30
2018-07-28T03:53:14.492Z,16.30
2018-07-28T03:55:42.375Z,16.30
2018-07-28T03:58:10.169Z,16.40
2018-07-28T04:03:05.884Z,16.40
2018-07-28T04:05:33.831Z,16.40
2018-07-28T04:08:01.771Z,16.30
2018-07-28T04:10:29.789Z,16.40
2018-07-28T04:12:57.753Z,16.30
2018-07-28T04:17:55.351Z,16.30
2018-07-28T04:20:24.384Z,16.30
2018-07-28T04:23:07.041Z,16.30
2018-07-28T04:25:34.892Z,16.40
2018-07-28T04:28:02.796Z,16.40
2018-07-28T04:30:30.607Z,16.40
2018-07-28T04:32:58.483Z,16.40
2018-07-28T04:35:26.830Z,16.50
2018-07-28T04:37:54.774Z,16.60
2018-07-28T04:40:22.698Z,16.70
2018-07-28T04:42:50.515Z,16.80
2018-07-28T04:45:18.363Z,16.80
2018-07-28T04:47:46.166Z,16.90
2018-07-28T04:50:14.119Z,16.80
2018-07-28T04:52:42.055Z,16.80
2018-07-28T04:55:09.990Z,16.70
2018-07-28T04:57:37.854Z,16.80
2018-07-28T05:00:05.959Z,16.90
2018-07-28T05:02:33.985Z,17.00
2018-07-28T05:05:01.874Z,17.10
2018-07-28T05:07:29.888Z,17.10
2018-07-28T05:09:57.809Z,17.10
2018-07-28T05:12:25.763Z,17.20
2018-07-28T05:14:53.642Z,17.30
2018-07-28T05:17:21.793Z,17.30
2018-07-28T05:19:50.597Z,17.40
2018-07-28T05:22:18.427Z,17.40
2018-07-28T05:24:46.184Z,17.50
2018-07-28T05:27:14.065Z,17.60
2018-07-28T05:29:42.027Z,17.70
2018-07-28T05:32:09.935Z,17.80
2018-07-28T05:34:37.682Z,17.80
2018-07-28T05:37:05.690Z,17.90
2018-07-28T05:39:34.763Z,18.00
2018-07-28T05:42:02.586Z,18.00
2018-07-28T05:44:30.540Z,18.10
2018-07-28T05:46:58.656Z,18.20
2018-07-28T05:49:26.693Z,18.20
2018-07-28T05:51:54.799Z,18.40
2018-07-28T05:54:27.453Z,18.50
2018-07-28T05:56:55.374Z,18.70
2018-07-28T05:59:23.402Z,18.90
2018-07-28T06:01:51.226Z,19.10
2018-07-28T06:04:19.114Z,19.30
2018-07-28T06:06:46.975Z,19.40
2018-07-28T06:09:14.813Z,19.50
2018-07-28T06:11:42.751Z,19.50
2018-07-28T06:14:10.725Z,19.60
2018-07-28T06:16:38.570Z,19.60
2018-07-28T06:19:06.483Z,19.70
2018-07-28T06:21:34.305Z,19.80
2018-07-28T06:24:02.086Z,19.90
2018-07-28T06:26:30.016Z,20.10
2018-07-28T06:28:57.966Z,20.20
2018-07-28T06:31:25.893Z,20.30
2018-07-28T06:33:53.933Z,20.60
2018-07-28T06:36:21.721Z,21.30
2018-07-28T06:38:49.517Z,22.60
2018-07-28T06:41:17.392Z,23.80
2018-07-28T06:43:45.359Z,24.90
2018-07-28T06:46:13.471Z,25.70
2018-07-28T06:48:41.398Z,26.40
2018-07-28T06:51:09.287Z,26.90
2018-07-28T06:53:37.179Z,27.40
2018-07-28T06:56:05.064Z,27.70
2018-07-28T06:58:33.009Z,28.00
2018-07-28T07:01:01.175Z,28.30
2018-07-28T07:03:29.479Z,28.60
2018-07-28T07:05:59.504Z,28.90
2018-07-28T07:08:28.289Z,28.80
2018-07-28T07:10:57.184Z,28.40
2018-07-28T07:13:26.679Z,28.10
2018-07-28T07:15:55.024Z,27.70
2018-07-28T07:18:22.993Z,27.70
2018-07-28T07:20:51.216Z,27.50
2018-07-28T07:23:19.165Z,27.70
2018-07-28T07:25:47.031Z,28.20
2018-07-28T07:28:15.028Z,28.70
2018-07-28T07:30:42.775Z,28.90
2018-07-28T07:33:10.622Z,29.00
2018-07-28T07:35:38.510Z,29.00
2018-07-28T07:38:06.337Z,29.00
2018-07-28T07:40:39.770Z,29.10
2018-07-28T07:43:07.687Z,29.30
2018-07-28T07:45:35.586Z,29.20
2018-07-28T07:48:03.272Z,29.40
2018-07-28T07:50:31.277Z,29.50
2018-07-28T07:52:59.617Z,29.60
2018-07-28T07:55:28.468Z,29.80
2018-07-28T07:57:57.467Z,30.00
2018-07-28T08:00:28.409Z,30.30
2018-07-28T08:02:57.258Z,30.60
2018-07-28T08:05:26.356Z,30.50
2018-07-28T08:07:58.385Z,30.50
2018-07-28T08:10:27.498Z,30.60
2018-07-28T08:12:55.850Z,30.70
2018-07-28T08:15:23.733Z,30.60
2018-07-28T08:17:51.510Z,30.70
2018-07-28T08:20:28.031Z,30.80
2018-07-28T08:22:57.059Z,30.90
2018-07-28T08:27:53.960Z,30.90
2018-07-28T08:30:21.951Z,30.90
2018-07-28T08:32:49.757Z,31.20
2018-07-28T08:35:17.691Z,31.20
2018-07-28T08:37:45.634Z,31.30
2018-07-28T08:42:43.301Z,31.30
2018-07-28T08:45:11.124Z,31.40
2018-07-28T08:47:38.927Z,31.40
2018-07-28T08:50:06.745Z,31.60
2018-07-28T08:52:37.730Z,31.80
2018-07-28T08:55:05.819Z,31.90
2018-07-28T08:57:33.806Z,31.80
2018-07-28T09:00:01.903Z,32.00
2018-07-28T09:02:29.919Z,32.00
2018-07-28T09:04:58.771Z,32.00
2018-07-28T09:07:27.212Z,32.10
2018-07-28T09:09:58.069Z,32.20
2018-07-28T09:12:27.559Z,32.10
2018-07-28T09:14:55.963Z,32.10
2018-07-28T09:17:26.228Z,32.10
2018-07-28T09:19:54.611Z,32.10
2018-07-28T09:22:22.546Z,32.20
2018-07-28T09:24:57.301Z,32.20
2018-07-28T09:27:25.860Z,32.30
2018-07-28T09:29:53.759Z,32.30
2018-07-28T09:32:21.859Z,32.30
2018-07-28T09:34:49.834Z,32.10
2018-07-28T09:37:17.709Z,32.00
2018-07-28T09:39:45.631Z,31.90
2018-07-28T09:42:14.766Z,31.80
2018-07-28T09:44:42.562Z,31.60
2018-07-28T09:47:10.470Z,31.70
2018-07-28T09:49:38.295Z,31.80
2018-07-28T09:52:06.193Z,31.80
2018-07-28T09:54:34.184Z,31.90
2018-07-28T09:57:02.660Z,31.90
2018-07-28T09:59:30.550Z,31.90
2018-07-28T10:01:58.586Z,31.90
2018-07-28T10:04:26.441Z,32.00
2018-07-28T10:06:56.434Z,32.00
2018-07-28T10:09:24.291Z,32.10
2018-07-28T10:11:52.083Z,32.10
2018-07-28T10:14:19.948Z,32.10
2018-07-28T10:19:15.495Z,32.40
2018-07-28T10:21:43.407Z,32.50
2018-07-28T10:24:11.262Z,32.50
2018-07-28T10:26:39.211Z,32.50
2018-07-28T10:29:07.067Z,32.50
2018-07-28T10:31:40.582Z,32.40
2018-07-28T10:34:08.360Z,32.50
2018-07-28T10:36:36.347Z,32.60
2018-07-28T10:39:09.016Z,32.60
2018-07-28T10:41:43.920Z,32.30
2018-07-28T10:44:11.860Z,32.20
2018-07-28T10:46:39.716Z,32.30
2018-07-28T10:49:07.575Z,32.20
2018-07-28T10:51:36.583Z,32.10
2018-07-28T10:54:04.785Z,32.10
2018-07-28T10:56:32.673Z,31.90
2018-07-28T10:59:00.636Z,31.80
2018-07-28T11:01:29.059Z,31.60
2018-07-28T11:03:57.818Z,31.60
2018-07-28T11:06:27.427Z,31.80
2018-07-28T11:08:57.860Z,32.00
2018-07-28T11:11:25.836Z,32.50
2018-07-28T11:13:53.754Z,32.80
2018-07-28T11:16:21.617Z,32.90
2018-07-28T11:18:49.543Z,33.00
2018-07-28T11:21:17.420Z,33.20
2018-07-28T11:23:55.232Z,33.20
2018-07-28T11:26:23.092Z,33.30
2018-07-28T11:28:51.933Z,33.30
2018-07-28T11:31:31.239Z,33.30
2018-07-28T11:34:10.199Z,33.30
2018-07-28T11:36:49.280Z,33.50
2018-07-28T11:39:30.199Z,33.50
2018-07-28T11:42:09.421Z,33.30
2018-07-28T11:44:51.859Z,33.20
2018-07-28T11:49:47.377Z,32.80
2018-07-28T11:52:15.201Z,32.80
2018-07-28T11:54:43.005Z,32.80
2018-07-28T11:57:10.890Z,32.80
2018-07-28T11:59:38.647Z,33.00
2018-07-28T12:02:06.545Z,33.10
2018-07-28T12:04:34.517Z,33.10
2018-07-28T12:07:02.315Z,32.80
2018-07-28T12:09:30.298Z,32.60
2018-07-28T12:12:10.337Z,32.50
2018-07-28T12:14:38.355Z,32.40
2018-07-28T12:17:06.790Z,32.40
2018-07-28T12:19:34.649Z,32.60
2018-07-28T12:24:30.571Z,32.90
2018-07-28T12:26:58.571Z,33.10
2018-07-28T12:29:26.691Z,33.30
2018-07-28T12:32:01.826Z,33.30
2018-07-28T12:34:29.798Z,33.20
2018-07-28T12:36:58.504Z,33.30
2018-07-28T12:39:27.246Z,33.20
2018-07-28T12:41:55.344Z,33.10
2018-07-28T12:44:23.236Z,33.00
2018-07-28T12:46:57.957Z,32.80
2018-07-28T12:49:26.844Z,32.80
2018-07-28T12:51:54.819Z,32.70
2018-07-28T12:54:22.750Z,32.80
2018-07-28T12:56:50.612Z,32.70
2018-07-28T12:59:19.586Z,32.80
2018-07-28T13:01:47.676Z,32.90
2018-07-28T13:04:15.488Z,32.80
2018-07-28T13:06:43.523Z,32.80
2018-07-28T13:09:12.254Z,33.00
2018-07-28T13:11:40.305Z,32.90
2018-07-28T13:14:08.235Z,32.80
2018-07-28T13:16:36.207Z,32.60
2018-07-28T13:19:04.033Z,32.50
2018-07-28T13:21:33.380Z,32.30
2018-07-28T13:24:01.397Z,32.20
2018-07-28T13:26:29.503Z,32.30
2018-07-28T13:28:57.777Z,32.50
2018-07-28T13:31:26.568Z,32.80
2018-07-28T13:34:08.038Z,33.10
2018-07-28T13:36:35.830Z,33.40
2018-07-28T13:39:05.057Z,33.70
2018-07-28T13:41:33.147Z,33.90
2018-07-28T13:44:02.211Z,34.00
2018-07-28T13:46:30.254Z,34.00
2018-07-28T13:48:58.602Z,33.80
2018-07-28T13:51:28.008Z,33.50
2018-07-28T13:53:57.271Z,33.30
2018-07-28T13:56:25.356Z,32.90
2018-07-28T13:58:58.888Z,32.40
2018-07-28T14:01:28.140Z,31.90
2018-07-28T14:03:58.274Z,31.50
2018-07-28T14:06:27.259Z,31.30
2018-07-28T14:08:55.377Z,31.10
2018-07-28T14:11:23.197Z,31.10
2018-07-28T14:13:51.111Z,30.90
2018-07-28T14:16:18.909Z,30.90
2018-07-28T14:18:47.832Z,30.70
2018-07-28T14:21:15.746Z,30.60
2018-07-28T14:23:43.661Z,30.20
2018-07-28T14:26:11.658Z,29.80
2018-07-28T14:28:39.691Z,29.50
2018-07-28T14:31:07.661Z,29.20
2018-07-28T14:33:35.622Z,28.90
2018-07-28T14:36:03.557Z,28.60
2018-07-28T14:38:31.805Z,28.50
2018-07-28T14:41:00.241Z,28.30
2018-07-28T14:43:28.559Z,28.10
2018-07-28T14:45:57.591Z,27.80
2018-07-28T14:48:26.076Z,27.70
2018-07-28T14:50:54.383Z,27.50
2018-07-28T14:53:22.524Z,27.50
2018-07-28T14:55:50.275Z,27.40
2018-07-28T14:58:18.132Z,27.30
2018-07-28T15:00:46.010Z,27.10
2018-07-28T15:03:26.848Z,27.10
2018-07-28T15:05:55.855Z,27.00
2018-07-28T15:08:24.093Z,26.90
2018-07-28T15:10:51.928Z,26.90
2018-07-28T15:13:19.818Z,26.90
2018-07-28T15:15:47.949Z,26.70
2018-07-28T15:18:15.887Z,26.70
2018-07-28T15:20:43.698Z,26.70
2018-07-28T15:23:11.563Z,26.80
2018-07-28T15:25:39.346Z,26.90
2018-07-28T15:28:07.270Z,26.90
2018-07-28T15:30:35.126Z,27.10
2018-07-28T15:33:03.136Z,27.20
2018-07-28T15:35:32.404Z,27.20
2018-07-28T15:38:00.617Z,27.30
2018-07-28T15:40:28.457Z,27.40
2018-07-28T15:42:56.317Z,27.40
2018-07-28T15:45:25.168Z,27.50
2018-07-28T15:47:53.027Z,27.60
2018-07-28T15:50:20.905Z,27.60
2018-07-28T15:52:49.553Z,27.70
2018-07-28T15:55:17.459Z,27.70
2018-07-28T15:57:45.295Z,27.60
2018-07-28T16:00:15.292Z,27.50
2018-07-28T16:02:43.230Z,27.50
2018-07-28T16:05:11.105Z,27.50
2018-07-28T16:07:39.033Z,27.50
2018-07-28T16:10:06.993Z,27.50
2018-07-28T16:12:35.034Z,27.50
2018-07-28T16:15:06.327Z,27.50
2018-07-28T16:17:34.282Z,27.40
2018-07-28T16:20:02.201Z,27.40
2018-07-28T16:22:30.283Z,27.40
2018-07-28T16:24:58.340Z,27.30
2018-07-28T16:27:26.632Z,27.20
2018-07-28T16:29:54.576Z,27.10
2018-07-28T16:32:22.513Z,27.10
2018-07-28T16:34:50.329Z,27.10
2018-07-28T16:37:18.301Z,27.10
2018-07-28T16:39:46.218Z,27.20
2018-07-28T16:44:41.854Z,27.40
2018-07-28T16:47:10.070Z,27.60
2018-07-28T16:49:38.250Z,27.90
2018-07-28T16:52:06.737Z,28.10
2018-07-28T16:54:34.829Z,28.20
2018-07-28T16:57:02.931Z,28.30
2018-07-28T16:59:31.102Z,28.20
2018-07-28T17:01:59.488Z,28.20
2018-07-28T17:04:27.852Z,28.10
2018-07-28T17:06:58.706Z,28.00
2018-07-28T17:09:28.029Z,27.80
2018-07-28T17:11:56.640Z,27.70
2018-07-28T17:14:24.650Z,27.50
2018-07-28T17:16:53.499Z,27.40
2018-07-28T17:19:21.510Z,27.20
2018-07-28T17:21:52.923Z,27.10
2018-07-28T17:24:21.377Z,27.00
2018-07-28T17:26:49.286Z,26.90
2018-07-28T17:29:17.216Z,26.70
2018-07-28T17:31:45.121Z,26.60
2018-07-28T17:34:14.969Z,26.40
2018-07-28T17:36:42.997Z,26.30
2018-07-28T17:39:11.328Z,26.20
2018-07-28T17:41:39.800Z,26.20
2018-07-28T17:44:07.684Z,26.10
2018-07-28T17:46:35.733Z,26.00
2018-07-28T17:49:03.914Z,26.00
2018-07-28T17:51:32.007Z,25.90
2018-07-28T17:54:00.663Z,25.80
2018-07-28T17:56:29.585Z,25.70
2018-07-28T17:58:59.702Z,25.60
2018-07-28T18:01:28.771Z,25.50
2018-07-28T18:03:57.777Z,25.40
2018-07-28T18:06:26.755Z,25.30
2018-07-28T18:08:58.540Z,25.20
2018-07-28T18:11:27.758Z,25.10
2018-07-28T18:13:56.115Z,25.00
2018-07-28T18:16:23.993Z,25.00
2018-07-28T18:19:16.932Z,24.90
2018-07-28T18:21:44.804Z,24.80
2018-07-28T18:26:40.436Z,24.60
2018-07-28T18:29:09.367Z,24.60
2018-07-28T18:31:42.953Z,24.60
2018-07-28T18:34:10.746Z,24.50
2018-07-28T18:36:38.733Z,24.50
2018-07-28T18:39:26.004Z,24.40
2018-07-28T18:41:53.929Z,24.40
2018-07-28T18:44:21.923Z,24.30
2018-07-28T18:46:51.899Z,24.30
2018-07-28T18:49:19.800Z,24.20
2018-07-28T18:51:47.688Z,24.20
2018-07-28T18:54:15.549Z,24.20
2018-07-28T18:56:43.555Z,24.20
2018-07-28T18:59:11.261Z,24.10
2018-07-28T19:01:39.121Z,24.20
2018-07-28T19:04:07.253Z,24.20
2018-07-28T19:06:35.405Z,24.20
2018-07-28T19:09:10.751Z,24.20
2018-07-28T19:11:44.650Z,24.20
2018-07-28T19:14:18.301Z,24.10
2018-07-28T19:16:46.240Z,24.00
2018-07-28T19:19:16.582Z,23.90
2018-07-28T19:21:45.370Z,23.90
2018-07-28T19:24:13.300Z,23.80
2018-07-28T19:26:41.235Z,23.90
2018-07-28T19:29:14.887Z,23.80
2018-07-28T19:31:42.702Z,23.70
2018-07-28T19:34:10.538Z,23.50
2018-07-28T19:37:41.316Z,23.40
2018-07-28T19:40:09.346Z,23.20
2018-07-28T19:42:52.135Z,23.00
2018-07-28T19:45:20.503Z,22.90
2018-07-28T19:47:48.328Z,22.70
2018-07-28T19:50:23.176Z,22.50
2018-07-28T19:52:50.997Z,22.20
2018-07-28T19:55:18.994Z,22.00
2018-07-28T19:57:46.876Z,21.80
2018-07-28T20:02:50.599Z,21.60
2018-07-28T20:05:20.513Z,21.50
2018-07-28T20:07:48.422Z,21.50
2018-07-28T20:10:16.399Z,21.50
2018-07-28T20:12:44.215Z,21.50
2018-07-28T20:15:12.102Z,21.50
2018-07-28T20:17:39.940Z,21.50
2018-07-28T20:20:08.708Z,21.40
2018-07-28T20:22:36.586Z,21.40
2018-07-28T20:25:04.730Z,21.30
2018-07-28T20:27:32.748Z,21.30
2018-07-28T20:30:00.686Z,21.30
2018-07-28T20:32:28.764Z,21.30
2018-07-28T20:34:57.366Z,21.20
2018-07-28T20:37:27.102Z,21.20
2018-07-28T20:39:55.176Z,21.10
2018-07-28T20:42:23.162Z,21.20
2018-07-28T20:44:50.995Z,21.20
2018-07-28T20:47:18.837Z,21.10
2018-07-28T20:49:46.818Z,21.10
2018-07-28T20:52:14.685Z,21.10
2018-07-28T20:54:42.523Z,21.10
2018-07-28T20:57:10.366Z,21.10
2018-07-28T20:59:38.332Z,21.10
2018-07-28T21:02:06.470Z,21.20
2018-07-28T21:04:34.403Z,21.20
2018-07-28T21:07:02.293Z,21.30
2018-07-28T21:09:30.218Z,21.40
2018-07-28T21:11:58.414Z,21.50
2018-07-28T21:14:27.124Z,21.60
2018-07-28T21:16:55.227Z,21.70
2018-07-28T21:19:23.226Z,21.70
2018-07-28T21:21:51.206Z,21.60
2018-07-28T21:24:28.681Z,21.60
2018-07-28T21:26:56.978Z,21.60
2018-07-28T21:29:24.950Z,21.60
2018-07-28T21:31:52.902Z,21.50
2018-07-28T21:34:20.898Z,21.50
2018-07-28T21:39:16.403Z,21.40
2018-07-28T21:41:44.570Z,21.40
2018-07-28T21:44:12.526Z,21.40
2018-07-28T21:49:08.090Z,21.20
2018-07-28T21:54:09.853Z,21.00
2018-07-28T21:56:37.665Z,21.00
2018-07-28T21:59:05.596Z,21.00
2018-07-28T22:01:33.468Z,21.00
2018-07-28T22:04:03.014Z,21.00
2018-07-28T22:06:31.921Z,21.00
2018-07-28T22:08:59.907Z,20.90
2018-07-28T22:11:27.899Z,20.90
2018-07-28T22:13:55.932Z,20.90
2018-07-28T22:16:23.834Z,20.80
2018-07-28T22:18:51.775Z,20.80
2018-07-28T22:21:19.745Z,20.80
2018-07-28T22:23:47.698Z,20.80
2018-07-28T22:26:28.217Z,20.80
2018-07-28T22:28:56.286Z,20.60
2018-07-28T22:31:24.235Z,20.50
2018-07-28T22:33:52.204Z,20.40
2018-07-28T22:36:20.110Z,20.30
2018-07-28T22:38:48.094Z,20.30
2018-07-28T22:41:17.921Z,20.30
2018-07-28T22:43:45.762Z,20.30
2018-07-28T22:46:13.634Z,20.30
2018-07-28T22:48:41.851Z,20.30
2018-07-28T22:51:09.794Z,20.30
2018-07-28T22:53:37.699Z,20.20
2018-07-28T22:56:05.625Z,20.20
2018-07-28T23:01:01.262Z,20.20
2018-07-28T23:03:32.651Z,20.10
2018-07-28T23:06:00.659Z,20.10
2018-07-28T23:08:29.096Z,20.10
2018-07-28T23:10:57.270Z,20.10
2018-07-28T23:13:25.144Z,20.20
2018-07-28T23:15:53.066Z,20.20
2018-07-28T23:18:20.916Z,20.20
2018-07-28T23:23:22.508Z,20.10
2018-07-28T23:25:50.415Z,20.10
2018-07-28T23:28:18.203Z,20.00
2018-07-28T23:30:46.065Z,20.10
2018-07-28T23:33:13.903Z,20.20
2018-07-28T23:35:41.671Z,20.30
2018-07-28T23:38:09.585Z,20.30
2018-07-28T23:40:37.550Z,20.20
2018-07-28T23:43:05.567Z,20.20
2018-07-28T23:45:43.836Z,20.20
2018-07-28T23:48:11.821Z,20.10
2018-07-28T23:50:39.726Z,20.10
2018-07-28T23:53:07.668Z,20.10
2018-07-28T23:55:35.652Z,20.20
2018-07-28T23:58:03.628Z,20.20
